Rms Voerde — V2AD8 — position and weather

sailwx.info

Track history (hours):
 
Tides and Currents Weather Stations Pressure Air Temp Water Temp Dewpoint Dewpoint Depression Visibility Wind Speed Wind Dir Waves Ship Positions

Rms Voerde

Last reported at 2016-May-31 03:19 UTC. Time now 2016-May-31 06:00 UTC.
Position N 51°44' W 006°46'.

Length 90 m; draft 3.6 m.

Type: Ship. MMSI: 304010905.

Date/timePositionNaut miles runAvg speedWind from/ knotsBaromVisibWave heightAir tempDewpointWater temp
2016-May-31 03:19N 51°44' W 006°46'811.0
2016-May-31 02:33N 51°52' W 006°50'1110.9
2016-May-31 01:33N 52°02' W 006°56'1010.0
2016-May-31 00:33N 52°12' W 006°56'7 6.8
2016-May-30 23:33N 52°18' W 007°01'5 5.2
2016-May-30 22:33N 52°23' W 006°58'0 0.0
2016-May-30 17:26N 52°23' W 006°58'0 0.0
2016-May-30 16:26N 52°23' W 006°58'0 0.0
2016-May-30 15:26N 52°23' W 006°58'0 0.0
2016-May-30 14:26N 52°23' W 006°58'0 0.0
2016-May-30 13:29N 52°23' W 006°58'0 0.0
2016-May-30 12:32N 52°23' W 006°58'0 0.0
2016-May-30 11:23N 52°23' W 006°58'0 0.0
2016-May-30 10:32N 52°23' W 006°58'0 0.0
2016-May-30 09:32N 52°23' W 006°58'0 0.0
2016-May-30 07:20N 52°23' W 006°58'0 0.0
2016-May-30 06:20N 52°23' W 006°58'0 0.0
2016-May-30 05:26N 52°23' W 006°58'0 0.0
2016-May-30 04:32N 52°23' W 006°58'0 0.0
2016-May-30 03:32N 52°23' W 006°58'0 0.0
2016-May-30 02:26N 52°23' W 006°58'0 0.0
2016-May-30 01:20N 52°23' W 006°58'0 0.0
2016-May-30 00:20N 52°23' W 006°58'0 0.0
2016-May-29 16:08N 52°23' W 006°58'0 0.0
2016-May-29 15:32N 52°23' W 006°58'0 0.0
2016-May-29 14:26N 52°23' W 006°58'0 0.0
2016-May-29 13:26N 52°23' W 006°58'0 0.0
2016-May-29 12:26N 52°23' W 006°58'0 0.0
2016-May-29 06:32N 52°23' W 006°58'0 0.0
2016-May-29 05:32N 52°23' W 006°58'0 0.0
2016-May-29 04:32N 52°23' W 006°58'0 0.0
2016-May-29 03:32N 52°23' W 006°58'0 0.0
2016-May-29 02:32N 52°23' W 006°58'0 0.0
2016-May-28 23:29N 52°23' W 006°58'0 0.0
2016-May-28 22:08N 52°23' W 006°58'0 0.0
2016-May-28 17:25N 52°23' W 006°58'0 0.0
2016-May-28 16:30N 52°23' W 006°58'0 0.0
2016-May-28 15:33N 52°23' W 006°58'0 0.0
2016-May-28 14:32N 52°23' W 006°58'0 0.0
2016-May-28 13:33N 52°23' W 006°58'0 0.0
2016-May-28 12:25N 52°23' W 006°58'0 0.0
2016-May-28 11:33N 52°23' W 006°58'0 0.0
2016-May-28 10:27N 52°23' W 006°58'5 5.2
2016-May-28 09:33N 52°19' W 007°00'9 8.1
2016-May-28 08:27N 52°10' W 006°56'2 1.7
2016-May-28 07:33N 52°09' W 006°58'0 0.0
2016-May-28 06:33N 52°09' W 006°58'0 0.0
2016-May-28 05:33N 52°09' W 006°58'1 0.3
2016-May-28 02:28N 52°08' W 006°59'7 7.3
2016-May-28 01:34N 52°02' W 006°54'99 9.6
2016-May-27 15:16N 50°29' W 005°60'810.0
2016-May-27 14:27N 50°21' W 005°56'9 9.7
2016-May-27 13:33N 50°12' W 005°55'38 7.6
2016-May-27 08:30N 49°57' W 005°00'8 9.0
2016-May-27 07:33N 49°58' W 004°48'9 9.3
2016-May-27 06:33N 50°00' W 004°33'10 9.9
2016-May-27 05:33N 50°02' W 004°18'1110.9
2016-May-27 04:33N 50°04' W 004°02'1211.7
2016-May-27 03:33N 50°06' W 003°44'1211.6
2016-May-27 02:33N 50°08' W 003°26'1110.7
2016-May-27 01:33N 50°11' W 003°10'11 9.9
2016-May-27 00:29N 50°12' W 002°53'8010.0
2016-May-26 16:32N 50°27' W 000°50'1312.5
2016-May-26 15:31N 50°29' W 000°30'1111.5
2016-May-26 14:33N 50°31' W 000°14'1110.5
2016-May-26 13:33N 50°33' E 000°03'9 9.5
2016-May-26 12:33N 50°36' E 000°17'12 8.8
2016-May-26 11:15N 50°39' E 000°34'2910.9
2016-May-26 08:32N 50°57' E 001°12'1212.3
2016-May-26 07:33N 51°04' E 001°27'1110.9
2016-May-26 06:33N 51°11' E 001°40'9 9.3
2016-May-26 05:33N 51°19' E 001°49'9 8.5
2016-May-26 04:33N 51°27' E 001°54'177 9.8
2016-May-25 10:29N 53°36' E 005°13'8 8.5
2016-May-25 09:33N 53°38' E 005°26'8 8.2
2016-May-25 08:33N 53°41' E 005°39'9 8.5
2016-May-25 07:33N 53°43' E 005°53'9 9.3
2016-May-25 06:33N 53°46' E 006°08'1010.4
2016-May-25 05:33N 53°50' E 006°24'1110.8
2016-May-25 04:33N 53°52' E 006°42'1110.7
2016-May-25 03:33N 53°55' E 006°60'1010.3
2016-May-25 02:34N 53°58' E 007°17'10 9.8
2016-May-25 01:33N 53°60' E 007°33'9 9.3
2016-May-25 00:33N 54°01' E 007°49'9 9.1
2016-May-24 23:33N 54°01' E 008°04'9 8.6
2016-May-24 22:32N 54°00' E 008°19'12 8.7
2016-May-24 21:07N 53°57' E 008°39'712.6
2016-May-24 20:33N 53°51' E 008°46'1312.7
2016-May-24 19:33N 53°53' E 009°07'1 1.1
2016-May-24 18:33N 53°54' E 009°09'6 6.0
2016-May-24 17:33N 53°58' E 009°16'4 4.4
2016-May-24 16:33N 54°02' E 009°18'5 4.9
2016-May-24 15:27N 54°08' E 009°20'16 6.8
2016-May-24 13:10N 54°18' E 009°40'5 7.8
2016-May-24 12:33N 54°21' E 009°46'6 6.5
2016-May-24 11:34N 54°21' E 009°57'6 5.7
2016-May-24 10:33N 54°22' E 010°06'1 1.2
2016-May-24 09:33N 54°22' E 010°08'6 6.1
2016-May-24 08:33N 54°27' E 010°14'1010.0
2016-May-24 07:33N 54°33' E 010°28'10 9.9
2016-May-24 06:33N 54°35' E 010°45'1010.2
2016-May-24 05:33N 54°36' E 011°02'10 9.9
2016-May-24 04:33N 54°34' E 011°19'1010.1
2016-May-24 03:34N 54°30' E 011°35'1110.6
2016-May-24 02:33N 54°27' E 011°53'1010.0
2016-May-24 01:33N 54°28' E 012°10'2510.2
2016-May-23 23:06N 54°46' E 012°40'7 9.7
2016-May-23 22:24N 54°47' E 012°52'810.0
2016-May-23 21:33N 54°46' E 013°07'1010.1
2016-May-23 20:33N 54°46' E 013°24'1010.2
2016-May-23 19:33N 54°45' E 013°42'1010.3
2016-May-23 18:33N 54°42' E 013°59'3310.3
2016-May-23 15:21N 54°41' E 014°56'1010.4
2016-May-23 14:21N 54°43' E 015°13'7210.4
2016-May-23 07:26N 54°55' E 017°16'910.6
2016-May-23 06:33N 54°58' E 017°31'1110.6
2016-May-23 05:33N 55°02' E 017°48'1010.5
2016-May-23 04:34N 55°06' E 018°05'1010.5
2016-May-23 03:33N 55°10' E 018°22'1010.3
2016-May-23 02:34N 55°14' E 018°39'1010.2
2016-May-23 01:33N 55°18' E 018°55'1110.4
2016-May-23 00:32N 55°22' E 019°13'1010.6
2016-May-22 23:33N 55°25' E 019°30'8 0.3
2016-May-21 22:28N 55°28' E 019°42'1010.6
2016-May-21 21:32N 55°25' E 019°26'1110.6
2016-May-21 20:29N 55°20' E 019°08'1010.8
2016-May-21 19:33N 55°16' E 018°52'1110.8
2016-May-21 18:33N 55°12' E 018°35'1110.5
2016-May-21 17:33N 55°07' E 018°18'1110.7
2016-May-21 16:33N 55°03' E 018°01'  
Track history (hours):
 
Tides and Currents Weather Stations Pressure Air Temp Water Temp Dewpoint Dewpoint Depression Visibility Wind Speed Wind Dir Waves Ship Positions

Rms Voerde

Last reported at 2016-May-31 03:19 UTC. Time now 2016-May-31 06:00 UTC.
Position N 51°44' W 006°46'.

Length 90 m; draft 3.6 m.

Type: Ship. MMSI: 304010905.

Date/timePositionNaut miles runAvg speedWind from/ knotsBaromVisibWave heightAir tempDewpointWater temp
2016-May-31 03:19N 51°44' W 006°46'811.0
2016-May-31 02:33N 51°52' W 006°50'1110.9
2016-May-31 01:33N 52°02' W 006°56'1010.0
2016-May-31 00:33N 52°12' W 006°56'7 6.8
2016-May-30 23:33N 52°18' W 007°01'5 5.2
2016-May-30 22:33N 52°23' W 006°58'0 0.0
2016-May-30 17:26N 52°23' W 006°58'0 0.0
2016-May-30 16:26N 52°23' W 006°58'0 0.0
2016-May-30 15:26N 52°23' W 006°58'0 0.0
2016-May-30 14:26N 52°23' W 006°58'0 0.0
2016-May-30 13:29N 52°23' W 006°58'0 0.0
2016-May-30 12:32N 52°23' W 006°58'0 0.0
2016-May-30 11:23N 52°23' W 006°58'0 0.0
2016-May-30 10:32N 52°23' W 006°58'0 0.0
2016-May-30 09:32N 52°23' W 006°58'0 0.0
2016-May-30 07:20N 52°23' W 006°58'0 0.0
2016-May-30 06:20N 52°23' W 006°58'0 0.0
2016-May-30 05:26N 52°23' W 006°58'0 0.0
2016-May-30 04:32N 52°23' W 006°58'0 0.0
2016-May-30 03:32N 52°23' W 006°58'0 0.0
2016-May-30 02:26N 52°23' W 006°58'0 0.0
2016-May-30 01:20N 52°23' W 006°58'0 0.0
2016-May-30 00:20N 52°23' W 006°58'0 0.0
2016-May-29 16:08N 52°23' W 006°58'0 0.0
2016-May-29 15:32N 52°23' W 006°58'0 0.0
2016-May-29 14:26N 52°23' W 006°58'0 0.0
2016-May-29 13:26N 52°23' W 006°58'0 0.0
2016-May-29 12:26N 52°23' W 006°58'0 0.0
2016-May-29 06:32N 52°23' W 006°58'0 0.0
2016-May-29 05:32N 52°23' W 006°58'0 0.0
2016-May-29 04:32N 52°23' W 006°58'0 0.0
2016-May-29 03:32N 52°23' W 006°58'0 0.0
2016-May-29 02:32N 52°23' W 006°58'0 0.0
2016-May-28 23:29N 52°23' W 006°58'0 0.0
2016-May-28 22:08N 52°23' W 006°58'0 0.0
2016-May-28 17:25N 52°23' W 006°58'0 0.0
2016-May-28 16:30N 52°23' W 006°58'0 0.0
2016-May-28 15:33N 52°23' W 006°58'0 0.0
2016-May-28 14:32N 52°23' W 006°58'0 0.0
2016-May-28 13:33N 52°23' W 006°58'0 0.0
2016-May-28 12:25N 52°23' W 006°58'0 0.0
2016-May-28 11:33N 52°23' W 006°58'0 0.0
2016-May-28 10:27N 52°23' W 006°58'5 5.2
2016-May-28 09:33N 52°19' W 007°00'9 8.1
2016-May-28 08:27N 52°10' W 006°56'2 1.7
2016-May-28 07:33N 52°09' W 006°58'0 0.0
2016-May-28 06:33N 52°09' W 006°58'0 0.0
2016-May-28 05:33N 52°09' W 006°58'1 0.3
2016-May-28 02:28N 52°08' W 006°59'7 7.3
2016-May-28 01:34N 52°02' W 006°54'99 9.6
2016-May-27 15:16N 50°29' W 005°60'810.0
2016-May-27 14:27N 50°21' W 005°56'9 9.7
2016-May-27 13:33N 50°12' W 005°55'38 7.6
2016-May-27 08:30N 49°57' W 005°00'8 9.0
2016-May-27 07:33N 49°58' W 004°48'9 9.3
2016-May-27 06:33N 50°00' W 004°33'10 9.9
2016-May-27 05:33N 50°02' W 004°18'1110.9
2016-May-27 04:33N 50°04' W 004°02'1211.7
2016-May-27 03:33N 50°06' W 003°44'1211.6
2016-May-27 02:33N 50°08' W 003°26'1110.7
2016-May-27 01:33N 50°11' W 003°10'11 9.9
2016-May-27 00:29N 50°12' W 002°53'8010.0
2016-May-26 16:32N 50°27' W 000°50'1312.5
2016-May-26 15:31N 50°29' W 000°30'1111.5
2016-May-26 14:33N 50°31' W 000°14'1110.5
2016-May-26 13:33N 50°33' E 000°03'9 9.5
2016-May-26 12:33N 50°36' E 000°17'12 8.8
2016-May-26 11:15N 50°39' E 000°34'2910.9
2016-May-26 08:32N 50°57' E 001°12'1212.3
2016-May-26 07:33N 51°04' E 001°27'1110.9
2016-May-26 06:33N 51°11' E 001°40'9 9.3
2016-May-26 05:33N 51°19' E 001°49'9 8.5
2016-May-26 04:33N 51°27' E 001°54'177 9.8
2016-May-25 10:29N 53°36' E 005°13'8 8.5
2016-May-25 09:33N 53°38' E 005°26'8 8.2
2016-May-25 08:33N 53°41' E 005°39'9 8.5
2016-May-25 07:33N 53°43' E 005°53'9 9.3
2016-May-25 06:33N 53°46' E 006°08'1010.4
2016-May-25 05:33N 53°50' E 006°24'1110.8
2016-May-25 04:33N 53°52' E 006°42'1110.7
2016-May-25 03:33N 53°55' E 006°60'1010.3
2016-May-25 02:34N 53°58' E 007°17'10 9.8
2016-May-25 01:33N 53°60' E 007°33'9 9.3
2016-May-25 00:33N 54°01' E 007°49'9 9.1
2016-May-24 23:33N 54°01' E 008°04'9 8.6
2016-May-24 22:32N 54°00' E 008°19'12 8.7
2016-May-24 21:07N 53°57' E 008°39'712.6
2016-May-24 20:33N 53°51' E 008°46'1312.7
2016-May-24 19:33N 53°53' E 009°07'1 1.1
2016-May-24 18:33N 53°54' E 009°09'6 6.0
2016-May-24 17:33N 53°58' E 009°16'4 4.4
2016-May-24 16:33N 54°02' E 009°18'5 4.9
2016-May-24 15:27N 54°08' E 009°20'16 6.8
2016-May-24 13:10N 54°18' E 009°40'5 7.8
2016-May-24 12:33N 54°21' E 009°46'6 6.5
2016-May-24 11:34N 54°21' E 009°57'6 5.7
2016-May-24 10:33N 54°22' E 010°06'1 1.2
2016-May-24 09:33N 54°22' E 010°08'6 6.1
2016-May-24 08:33N 54°27' E 010°14'1010.0
2016-May-24 07:33N 54°33' E 010°28'10 9.9
2016-May-24 06:33N 54°35' E 010°45'1010.2
2016-May-24 05:33N 54°36' E 011°02'10 9.9
2016-May-24 04:33N 54°34' E 011°19'1010.1
2016-May-24 03:34N 54°30' E 011°35'1110.6
2016-May-24 02:33N 54°27' E 011°53'1010.0
2016-May-24 01:33N 54°28' E 012°10'2510.2
2016-May-23 23:06N 54°46' E 012°40'7 9.7
2016-May-23 22:24N 54°47' E 012°52'810.0
2016-May-23 21:33N 54°46' E 013°07'1010.1
2016-May-23 20:33N 54°46' E 013°24'1010.2
2016-May-23 19:33N 54°45' E 013°42'1010.3
2016-May-23 18:33N 54°42' E 013°59'3310.3
2016-May-23 15:21N 54°41' E 014°56'1010.4
2016-May-23 14:21N 54°43' E 015°13'7210.4
2016-May-23 07:26N 54°55' E 017°16'910.6
2016-May-23 06:33N 54°58' E 017°31'1110.6
2016-May-23 05:33N 55°02' E 017°48'1010.5
2016-May-23 04:34N 55°06' E 018°05'1010.5
2016-May-23 03:33N 55°10' E 018°22'1010.3
2016-May-23 02:34N 55°14' E 018°39'1010.2
2016-May-23 01:33N 55°18' E 018°55'1110.4
2016-May-23 00:32N 55°22' E 019°13'1010.6
2016-May-22 23:33N 55°25' E 019°30'8 0.3
2016-May-21 22:28N 55°28' E 019°42'1010.6
2016-May-21 21:32N 55°25' E 019°26'1110.6
2016-May-21 20:29N 55°20' E 019°08'1010.8
2016-May-21 19:33N 55°16' E 018°52'1110.8
2016-May-21 18:33N 55°12' E 018°35'1110.5
2016-May-21 17:33N 55°07' E 018°18'1110.7
2016-May-21 16:33N 55°03' E 018°01'  

Dump ship's entire track history